KDAN/DAN METAR and TAF weather

Enter ICAO airport designator
Station Type Date Time Source
KDAN METAR 2018/10/19 14:53 UTC NOAA

KDAN 191453Z AUTO VRB04KT 10SM CLR 12/08 A3037 RMK AO2 SLP279 T01170078 58004


Station Type Date Time Source
KDAN Decoded METAR 2018/10/19 14:53 UTC NOAA

DANVILLE REGIONAL AIRPORT, VA, United States (KDAN) 36-34N 079-20W 175M
Oct 19, 2018 - 10:53 AM EDT / 2018.10.19 1453 UTC
Wind: Variable at 5 MPH (4 KT):0
Visibility: 10 mile(s):0
Sky conditions: clear
Temperature: 53.1 F (11.7 C)
Dew Point: 46.0 F (7.8 C)
Relative Humidity: 76%
Pressure (altimeter): 30.37 in. Hg (1028 hPa)
Pressure tendency: 0.01 inches (0.4 hPa) lower than three hours ago
ob: KDAN 191453Z AUTO VRB04KT 10SM CLR 12/08 A3037 RMK AO2 SLP279 T01170078 58004
cycle: 15

Station Type Date Time Source
KDAN TAF 2018/10/19 12:27 UTC NOAA

TAF KDAN 191124Z 1912/2012 00000KT P6SM SKC
FM191600 20005KT P6SM SKC
FM200400 VRB04KT P6SM BKN100
FM200600 23006KT 6SM -SHRA OVC050


Example: see airport list